Time;durP1;ratioP1;P1;durP2;ratioP2;P2;SDS_P1;SDS_P2;PMS_P1;PMS_P2;Temp;Humidity;BMP_temperature;BMP_pressure;BME280_temperature;BME280_humidity;BME280_pressure;Samples;Min_cycle;Max_cycle;Signal;HPM_P1;HPM_P2
2022/05/05 00:00:52;;;;;;;5.57;4.97;;;;;;;;;;5074371;28;20468;-71
2022/05/05 00:03:19;;;;;;;5.97;5.43;;;;;;;;;;5074232;28;20460;-71
2022/05/05 00:05:46;;;;;;;5.60;5.10;;;;;;;;;;5074359;28;20447;-71
2022/05/05 00:08:14;;;;;;;6.13;4.50;;;;;;;;;;5073986;28;20502;-71
2022/05/05 00:16:11;;;;;;;6.97;4.60;;;;;;;;;;5074125;28;20477;-71
2022/05/05 00:18:38;;;;;;;5.00;4.50;;;;;;;;;;5074081;28;20448;-71
2022/05/05 00:21:06;;;;;;;8.90;5.27;;;;;;;;;;5073896;28;20454;-71
2022/05/05 00:23:34;;;;;;;5.17;4.67;;;;;;;;;;5073505;28;20470;-71
2022/05/05 00:26:01;;;;;;;5.13;4.63;;;;;;;;;;5073878;28;21010;-71
2022/05/05 00:28:28;;;;;;;6.83;5.30;;;;;;;;;;5073788;28;20999;-71
2022/05/05 00:30:55;;;;;;;7.93;6.00;;;;;;;;;;5073695;28;20799;-71
2022/05/05 00:33:22;;;;;;;7.63;5.03;;;;;;;;;;5073827;28;20460;-71
2022/05/05 00:35:49;;;;;;;4.73;4.23;;;;;;;;;;5073570;28;20455;-71
2022/05/05 00:38:17;;;;;;;7.10;5.93;;;;;;;;;;5073636;28;20455;-71
2022/05/05 00:40:45;;;;;;;8.27;6.17;;;;;;;;;;5073665;28;20818;-71
2022/05/05 00:43:12;;;;;;;8.00;5.77;;;;;;;;;;5073355;28;20463;-71
2022/05/05 00:45:39;;;;;;;14.90;5.63;;;;;;;;;;5073291;28;20968;-71
2022/05/05 00:48:07;;;;;;;12.50;5.93;;;;;;;;;;5073355;28;20460;-71
2022/05/05 00:50:35;;;;;;;7.50;6.33;;;;;;;;;;5073658;28;20464;-71
2022/05/05 00:53:02;;;;;;;7.67;6.07;;;;;;;;;;5073372;28;20941;-72
2022/05/05 00:55:29;;;;;;;10.00;6.93;;;;;;;;;;5073095;28;20463;-71
2022/05/05 00:57:58;;;;;;;8.10;6.80;;;;;;;;;;5073315;28;20824;-71
2022/05/05 01:00:25;;;;;;;7.70;6.70;;;;;;;;;;5073152;28;20521;-71
2022/05/05 01:02:52;;;;;;;8.80;7.40;;;;;;;;;;5073201;28;20459;-71
2022/05/05 01:05:20;;;;;;;9.60;7.10;;;;;;;;;;5073228;28;20474;-71
2022/05/05 01:07:47;;;;;;;8.23;7.13;;;;;;;;;;5072773;28;20458;-71
2022/05/05 01:10:14;;;;;;;10.47;7.43;;;;;;;;;;5073059;28;20484;-71
2022/05/05 01:12:41;;;;;;;7.63;6.70;;;;;;;;;;5073152;28;20853;-71
2022/05/05 01:15:11;;;;;;;7.90;7.10;;;;;;;;;;5072962;28;20451;-71
2022/05/05 01:17:38;;;;;;;7.27;6.57;;;;;;;;;;5073025;28;20517;-71
2022/05/05 01:20:11;;;;;;;14.03;7.57;;;;;;;;;;5073036;28;21054;-71
2022/05/05 01:22:40;;;;;;;8.83;6.73;;;;;;;;;;5072564;28;20456;-71
2022/05/05 01:30:38;;;;;;;9.90;6.80;;;;;;;;;;5072936;28;20491;-71
2022/05/05 01:33:11;;;;;;;7.60;6.63;;;;;;;;;;5072922;28;20458;-71
2022/05/05 01:35:38;;;;;;;8.70;6.27;;;;;;;;;;5072675;28;20455;-71
2022/05/05 01:38:06;;;;;;;9.10;6.90;;;;;;;;;;5072762;28;20447;-71
2022/05/05 01:40:33;;;;;;;8.43;6.13;;;;;;;;;;5073025;28;20470;-71
2022/05/05 01:43:00;;;;;;;8.10;7.30;;;;;;;;;;5072819;28;20462;-71
2022/05/05 01:45:28;;;;;;;9.20;5.93;;;;;;;;;;5072711;28;20803;-71
2022/05/05 01:47:55;;;;;;;8.10;7.30;;;;;;;;;;5072806;28;20451;-71
2022/05/05 01:50:22;;;;;;;9.30;7.00;;;;;;;;;;5072757;28;20496;-71
2022/05/05 01:52:49;;;;;;;8.20;6.90;;;;;;;;;;5072760;28;20509;-71
2022/05/05 01:55:18;;;;;;;10.30;7.50;;;;;;;;;;5072575;28;20448;-71
2022/05/05 01:57:45;;;;;;;11.93;7.80;;;;;;;;;;5072704;28;20451;-71
2022/05/05 02:00:12;;;;;;;9.27;7.37;;;;;;;;;;5072545;28;20460;-71
2022/05/05 02:02:39;;;;;;;9.50;7.30;;;;;;;;;;5072627;28;20989;-71
2022/05/05 02:05:07;;;;;;;8.13;7.33;;;;;;;;;;5072366;28;20455;-71
2022/05/05 02:07:35;;;;;;;7.83;6.67;;;;;;;;;;5072656;28;20447;-71
2022/05/05 02:10:03;;;;;;;8.77;7.53;;;;;;;;;;5072114;28;20495;-71
2022/05/05 02:12:31;;;;;;;8.93;6.70;;;;;;;;;;5072492;28;20521;-71
2022/05/05 02:14:58;;;;;;;7.27;6.40;;;;;;;;;;5072097;28;20448;-71
2022/05/05 02:17:26;;;;;;;15.73;9.37;;;;;;;;;;5072309;28;20447;-71
2022/05/05 02:19:53;;;;;;;14.17;10.13;;;;;;;;;;5072714;28;20470;-71
2022/05/05 02:22:20;;;;;;;9.53;8.00;;;;;;;;;;5076085;28;20459;-71
2022/05/05 02:24:47;;;;;;;7.20;6.50;;;;;;;;;;5075968;28;20455;-71
2022/05/05 02:27:14;;;;;;;7.60;6.40;;;;;;;;;;5076404;28;20960;-71
2022/05/05 02:29:42;;;;;;;7.50;6.40;;;;;;;;;;5076082;28;20860;-71
2022/05/05 02:32:10;;;;;;;8.13;5.90;;;;;;;;;;5076076;28;20483;-71
2022/05/05 02:34:37;;;;;;;6.47;5.77;;;;;;;;;;5075896;28;20456;-71
2022/05/05 02:39:49;;;;;;;7.67;6.17;;;;;;;;;;5075839;28;20466;-71
2022/05/05 02:42:16;;;;;;;6.03;5.30;;;;;;;;;;5075721;28;20447;-71
2022/05/05 02:44:45;;;;;;;6.47;5.70;;;;;;;;;;5075593;28;20616;-71
2022/05/05 02:47:12;;;;;;;8.20;5.53;;;;;;;;;;5075814;28;20827;-71
2022/05/05 02:49:40;;;;;;;9.60;6.20;;;;;;;;;;5075685;28;21000;-71
2022/05/05 02:52:08;;;;;;;6.80;5.63;;;;;;;;;;5075882;28;20455;-71
2022/05/05 02:54:51;;;;;;;6.90;6.20;;;;;;;;;;5075344;28;20451;-71
2022/05/05 02:57:18;;;;;;;6.37;5.20;;;;;;;;;;5075975;28;20908;-71
2022/05/05 02:59:47;;;;;;;7.17;5.60;;;;;;;;;;5075901;28;20543;-71
2022/05/05 03:02:14;;;;;;;6.90;5.10;;;;;;;;;;5075521;28;20550;-71
2022/05/05 03:04:41;;;;;;;6.77;5.70;;;;;;;;;;5075326;28;20479;-71
2022/05/05 03:07:08;;;;;;;11.10;6.13;;;;;;;;;;5075416;28;20447;-71
2022/05/05 03:09:36;;;;;;;8.70;6.47;;;;;;;;;;5075242;28;20495;-71
2022/05/05 03:12:03;;;;;;;9.57;6.80;;;;;;;;;;5075255;28;20451;-71
2022/05/05 03:14:30;;;;;;;16.07;11.73;;;;;;;;;;5075112;28;20448;-71
2022/05/05 03:16:58;;;;;;;9.40;7.80;;;;;;;;;;5075500;28;20952;-71
2022/05/05 03:19:26;;;;;;;9.33;7.20;;;;;;;;;;5075345;28;20475;-71
2022/05/05 03:21:53;;;;;;;8.13;6.67;;;;;;;;;;5075009;28;21030;-71
2022/05/05 03:24:20;;;;;;;10.30;8.00;;;;;;;;;;5074956;28;20471;-71
2022/05/05 03:26:47;;;;;;;11.03;8.47;;;;;;;;;;5075119;28;20986;-71
2022/05/05 03:29:14;;;;;;;10.63;8.43;;;;;;;;;;5075016;28;20487;-71
2022/05/05 03:31:41;;;;;;;11.20;8.33;;;;;;;;;;5074747;28;20452;-71
2022/05/05 03:34:10;;;;;;;21.30;12.17;;;;;;;;;;5074665;28;20448;-71
2022/05/05 03:36:37;;;;;;;13.43;10.13;;;;;;;;;;5075017;28;20452;-71
2022/05/05 03:39:05;;;;;;;11.37;9.20;;;;;;;;;;5074762;28;20486;-71
2022/05/05 03:41:32;;;;;;;14.50;9.80;;;;;;;;;;5074962;28;20462;-71
2022/05/05 03:43:59;;;;;;;16.10;10.97;;;;;;;;;;5074514;28;20444;-71
2022/05/05 03:46:27;;;;;;;13.27;10.50;;;;;;;;;;5074837;28;20936;-71
2022/05/05 03:48:54;;;;;;;14.40;11.27;;;;;;;;;;5074404;28;20475;-71
2022/05/05 03:51:22;;;;;;;16.40;11.47;;;;;;;;;;5074473;28;20502;-71
2022/05/05 03:53:49;;;;;;;19.23;12.63;;;;;;;;;;5074428;28;20452;-71
2022/05/05 03:56:17;;;;;;;17.80;12.40;;;;;;;;;;5074613;28;20478;-71
2022/05/05 03:58:44;;;;;;;15.13;11.50;;;;;;;;;;5074576;28;20455;-71
2022/05/05 04:01:11;;;;;;;15.67;11.20;;;;;;;;;;5074615;28;20453;-71
2022/05/05 04:03:43;;;;;;;12.60;9.80;;;;;;;;;;5074357;28;20951;-71
2022/05/05 04:06:10;;;;;;;13.63;9.70;;;;;;;;;;5074225;28;20455;-71
2022/05/05 04:08:39;;;;;;;10.53;8.53;;;;;;;;;;5074208;28;20463;-71
2022/05/05 04:11:06;;;;;;;9.93;8.37;;;;;;;;;;5074018;28;20491;-71
2022/05/05 04:13:34;;;;;;;9.10;7.40;;;;;;;;;;5074058;28;20820;-71
2022/05/05 04:16:01;;;;;;;11.10;9.10;;;;;;;;;;5074053;28;20463;-71
2022/05/05 04:18:28;;;;;;;10.10;8.47;;;;;;;;;;5074013;28;20461;-71
2022/05/05 04:20:55;;;;;;;12.60;8.80;;;;;;;;;;5073860;28;20452;-71
2022/05/05 04:23:22;;;;;;;11.57;9.07;;;;;;;;;;5073401;28;20558;-71
2022/05/05 04:25:51;;;;;;;11.37;10.13;;;;;;;;;;5073695;28;20455;-71
2022/05/05 04:28:18;;;;;;;11.67;9.43;;;;;;;;;;5073780;28;20442;-71
2022/05/05 04:30:45;;;;;;;9.60;8.47;;;;;;;;;;5073801;28;20609;-70
2022/05/05 04:33:13;;;;;;;11.47;8.57;;;;;;;;;;5073717;28;20451;-70
2022/05/05 04:35:40;;;;;;;11.13;9.97;;;;;;;;;;5073448;28;20481;-70
2022/05/05 04:38:08;;;;;;;7.13;6.20;;;;;;;;;;5073513;28;20447;-71
2022/05/05 04:40:35;;;;;;;5.80;5.30;;;;;;;;;;5075835;28;20463;-70
2022/05/05 04:43:03;;;;;;;5.60;5.00;;;;;;;;;;5092299;28;20822;-70
2022/05/05 04:45:30;;;;;;;7.30;5.90;;;;;;;;;;5092957;28;20459;-71
2022/05/05 04:47:58;;;;;;;9.40;8.17;;;;;;;;;;5093542;28;20450;-71
2022/05/05 04:50:25;;;;;;;8.23;5.43;;;;;;;;;;5093763;28;21017;-71
2022/05/05 04:52:52;;;;;;;6.27;5.77;;;;;;;;;;5093567;28;20534;-71
2022/05/05 04:55:19;;;;;;;6.33;5.73;;;;;;;;;;5093019;28;20467;-71
2022/05/05 04:57:46;;;;;;;5.53;4.83;;;;;;;;;;5093443;28;20567;-71
2022/05/05 05:00:16;;;;;;;6.03;5.43;;;;;;;;;;5093230;28;20474;-71
2022/05/05 05:02:44;;;;;;;7.20;6.23;;;;;;;;;;5087262;28;20488;-70
2022/05/05 05:05:11;;;;;;;6.27;5.67;;;;;;;;;;5090014;28;20803;-71
2022/05/05 05:07:38;;;;;;;6.67;5.53;;;;;;;;;;5091798;28;20450;-71
2022/05/05 05:10:05;;;;;;;6.43;5.30;;;;;;;;;;5091396;28;20486;-71
2022/05/05 05:12:33;;;;;;;5.37;4.83;;;;;;;;;;5092004;28;20474;-71
2022/05/05 05:15:00;;;;;;;4.47;4.17;;;;;;;;;;5091433;28;20455;-71
2022/05/05 05:17:28;;;;;;;4.53;4.17;;;;;;;;;;5091714;28;20457;-71
2022/05/05 05:19:55;;;;;;;4.70;4.20;;;;;;;;;;5091487;28;20890;-71
2022/05/05 05:22:23;;;;;;;4.23;3.87;;;;;;;;;;5091491;28;20450;-71
2022/05/05 05:24:50;;;;;;;4.30;3.73;;;;;;;;;;5091250;28;20509;-71
2022/05/05 05:27:17;;;;;;;5.10;4.60;;;;;;;;;;5091093;28;20451;-71
2022/05/05 05:29:44;;;;;;;11.90;10.60;;;;;;;;;;5091514;28;20471;-71
2022/05/05 05:32:11;;;;;;;8.63;5.10;;;;;;;;;;5091624;28;20462;-70
2022/05/05 05:34:40;;;;;;;4.77;4.27;;;;;;;;;;5091387;28;20962;-71
2022/05/05 05:37:07;;;;;;;4.70;3.80;;;;;;;;;;5091334;28;20455;-71
2022/05/05 05:39:34;;;;;;;3.60;3.30;;;;;;;;;;5091584;28;20471;-71
2022/05/05 05:42:01;;;;;;;3.90;3.60;;;;;;;;;;5091244;28;20458;-71
2022/05/05 05:44:28;;;;;;;3.47;3.17;;;;;;;;;;5091115;28;20940;-71
2022/05/05 05:46:56;;;;;;;3.47;3.17;;;;;;;;;;5070758;28;20474;-71
2022/05/05 05:49:23;;;;;;;3.90;3.50;;;;;;;;;;5070864;28;20471;-71
2022/05/05 05:51:51;;;;;;;3.63;3.33;;;;;;;;;;5070939;28;21031;-71
2022/05/05 05:54:19;;;;;;;4.30;3.33;;;;;;;;;;5072229;28;20465;-71
2022/05/05 05:56:46;;;;;;;3.23;2.93;;;;;;;;;;5075254;28;20456;-71
2022/05/05 05:59:13;;;;;;;3.40;3.10;;;;;;;;;;5087929;28;20482;-71
2022/05/05 06:04:27;;;;;;;2.40;2.20;;;;;;;;;;5096444;28;20791;-71
2022/05/05 06:06:55;;;;;;;3.30;2.83;;;;;;;;;;5096951;28;20451;-71
2022/05/05 06:09:22;;;;;;;3.33;2.80;;;;;;;;;;5096806;28;20991;-71
2022/05/05 06:11:49;;;;;;;3.63;3.27;;;;;;;;;;5096759;28;20969;-71
2022/05/05 06:14:17;;;;;;;3.10;2.80;;;;;;;;;;5096182;28;20448;-71
2022/05/05 06:16:44;;;;;;;3.17;2.87;;;;;;;;;;5096686;28;20477;-72
2022/05/05 06:19:11;;;;;;;3.50;3.20;;;;;;;;;;5096451;28;20479;-71
2022/05/05 06:21:39;;;;;;;4.37;2.87;;;;;;;;;;5096991;28;20459;-72
2022/05/05 06:24:08;;;;;;;3.73;3.43;;;;;;;;;;5096104;28;20459;-71
2022/05/05 06:26:35;;;;;;;4.07;2.87;;;;;;;;;;5096521;28;20476;-71
2022/05/05 06:29:02;;;;;;;6.83;3.97;;;;;;;;;;5096346;28;20919;-71
2022/05/05 06:31:29;;;;;;;11.27;8.37;;;;;;;;;;5096387;28;20495;-71
2022/05/05 06:33:56;;;;;;;5.17;4.60;;;;;;;;;;5096496;28;20528;-70
2022/05/05 06:36:24;;;;;;;7.80;3.53;;;;;;;;;;5096296;28;20446;-74
2022/05/05 06:38:52;;;;;;;28.70;8.00;;;;;;;;;;5096589;28;20983;-72
2022/05/05 06:41:21;;;;;;;15.70;4.70;;;;;;;;;;5096656;28;20495;-72
2022/05/05 06:43:48;;;;;;;3.43;3.13;;;;;;;;;;5096240;28;20455;-72
2022/05/05 06:46:16;;;;;;;3.30;3.00;;;;;;;;;;5096404;28;20458;-72
2022/05/05 06:48:43;;;;;;;4.50;3.70;;;;;;;;;;5096006;28;20446;-72
2022/05/05 06:51:10;;;;;;;3.80;3.40;;;;;;;;;;5096269;28;20485;-72
2022/05/05 06:53:37;;;;;;;3.33;3.03;;;;;;;;;;5096190;28;20827;-72
2022/05/05 06:56:04;;;;;;;3.70;3.40;;;;;;;;;;5096225;28;20450;-72
2022/05/05 06:58:32;;;;;;;4.80;3.83;;;;;;;;;;5096081;28;20910;-72
2022/05/05 07:03:44;;;;;;;3.83;3.53;;;;;;;;;;5095874;28;20410;-72
2022/05/05 07:06:11;;;;;;;4.23;3.83;;;;;;;;;;5095399;28;20446;-72
2022/05/05 07:11:23;;;;;;;4.00;3.70;;;;;;;;;;5093159;28;21117;-71
2022/05/05 07:13:51;;;;;;;4.67;3.33;;;;;;;;;;5094558;28;20454;-71
2022/05/05 07:16:18;;;;;;;54.50;8.87;;;;;;;;;;5094704;28;20431;-70
2022/05/05 07:18:46;;;;;;;31.00;5.90;;;;;;;;;;5093817;28;20463;-71
2022/05/05 07:21:13;;;;;;;4.00;3.23;;;;;;;;;;5094037;28;20450;-70
2022/05/05 07:23:40;;;;;;;4.03;3.73;;;;;;;;;;5094115;28;20951;-70
2022/05/05 07:26:07;;;;;;;3.40;3.10;;;;;;;;;;5094084;28;20454;-71
2022/05/05 07:28:34;;;;;;;3.97;3.67;;;;;;;;;;5094160;28;20447;-71
2022/05/05 07:31:02;;;;;;;3.10;2.80;;;;;;;;;;5089745;28;20503;-71
2022/05/05 07:33:29;;;;;;;16.53;5.70;;;;;;;;;;5093421;28;20454;-71
2022/05/05 07:35:56;;;;;;;12.40;5.87;;;;;;;;;;5094044;28;20455;-71
2022/05/05 07:38:24;;;;;;;16.57;5.07;;;;;;;;;;5093856;28;20833;-72
2022/05/05 07:40:51;;;;;;;3.60;3.03;;;;;;;;;;5093708;28;20477;-71
2022/05/05 07:43:19;;;;;;;4.30;4.00;;;;;;;;;;5093313;28;20470;-71
2022/05/05 07:45:46;;;;;;;9.23;8.50;;;;;;;;;;5093521;28;20919;-71
2022/05/05 07:48:15;;;;;;;4.60;4.20;;;;;;;;;;5093364;28;20455;-71
2022/05/05 07:50:42;;;;;;;5.27;3.80;;;;;;;;;;5093631;28;20858;-71
2022/05/05 07:53:09;;;;;;;4.30;4.00;;;;;;;;;;5092832;28;20512;-72
2022/05/05 07:55:36;;;;;;;4.67;4.27;;;;;;;;;;5093171;28;20450;-72
2022/05/05 07:58:03;;;;;;;4.00;3.70;;;;;;;;;;5092324;28;20482;-71
2022/05/05 08:00:30;;;;;;;4.47;4.07;;;;;;;;;;5093526;28;20882;-71
2022/05/05 08:02:57;;;;;;;5.40;5.00;;;;;;;;;;5093447;28;20511;-71
2022/05/05 08:05:27;;;;;;;4.03;3.63;;;;;;;;;;5093006;28;20455;-71
2022/05/05 08:07:54;;;;;;;5.90;5.10;;;;;;;;;;5093084;28;20451;-71
2022/05/05 08:10:22;;;;;;;3.97;3.67;;;;;;;;;;5093137;28;20979;-71
2022/05/05 08:12:49;;;;;;;4.50;4.20;;;;;;;;;;5093093;28;20485;-71
2022/05/05 08:15:17;;;;;;;5.23;3.60;;;;;;;;;;5092675;28;20454;-71
2022/05/05 08:17:44;;;;;;;4.30;3.90;;;;;;;;;;5090580;28;20936;-71
2022/05/05 08:20:12;;;;;;;5.43;4.30;;;;;;;;;;5092221;28;20514;-71
2022/05/05 08:22:40;;;;;;;4.00;3.70;;;;;;;;;;5092691;28;20832;-71
2022/05/05 08:30:37;;;;;;;4.43;4.00;;;;;;;;;;5092587;28;20442;-72
2022/05/05 08:33:04;;;;;;;5.33;4.17;;;;;;;;;;5092820;28;20554;-71
2022/05/05 08:35:32;;;;;;;5.23;4.30;;;;;;;;;;5092774;28;20944;-72
2022/05/05 08:38:00;;;;;;;5.60;4.53;;;;;;;;;;5092761;28;21181;-72
2022/05/05 08:40:28;;;;;;;4.77;4.03;;;;;;;;;;5092353;28;20883;-72
2022/05/05 08:42:56;;;;;;;5.03;3.70;;;;;;;;;;5092400;28;20455;-72
2022/05/05 08:45:23;;;;;;;4.70;4.30;;;;;;;;;;5092314;28;20498;-72
2022/05/05 08:47:51;;;;;;;8.30;4.47;;;;;;;;;;5092298;28;20461;-72
2022/05/05 08:50:20;;;;;;;5.67;4.50;;;;;;;;;;5092807;28;20475;-72
2022/05/05 08:52:48;;;;;;;5.77;5.27;;;;;;;;;;5092496;28;20486;-72
2022/05/05 08:55:17;;;;;;;4.77;4.47;;;;;;;;;;5093607;28;20457;-71
2022/05/05 08:57:45;;;;;;;5.70;4.37;;;;;;;;;;5093659;28;20458;-72
2022/05/05 09:00:14;;;;;;;4.47;4.07;;;;;;;;;;5093455;28;20478;-72
2022/05/05 09:02:41;;;;;;;4.67;4.27;;;;;;;;;;5093544;28;20475;-72
2022/05/05 09:05:09;;;;;;;4.70;4.30;;;;;;;;;;5093216;28;20454;-72
2022/05/05 09:07:49;;;;;;;9.10;5.40;;;;;;;;;;5093554;28;20837;-72
2022/05/05 09:10:17;;;;;;;5.20;4.70;;;;;;;;;;5093391;28;20496;-72
2022/05/05 09:12:57;;;;;;;8.97;4.90;;;;;;;;;;5093698;28;20486;-72
2022/05/05 09:15:30;;;;;;;6.10;5.50;;;;;;;;;;5093392;28;20461;-71
2022/05/05 09:18:10;;;;;;;7.63;6.30;;;;;;;;;;5093620;28;20454;-71
2022/05/05 09:20:37;;;;;;;5.60;5.10;;;;;;;;;;5093487;28;20474;-72
2022/05/05 09:23:05;;;;;;;6.60;5.50;;;;;;;;;;5092970;28;20466;-71
2022/05/05 09:25:45;;;;;;;4.73;4.33;;;;;;;;;;5093300;28;20857;-71
2022/05/05 09:28:19;;;;;;;5.40;5.00;;;;;;;;;;5093266;28;20435;-72
2022/05/05 09:30:47;;;;;;;18.17;6.00;;;;;;;;;;5092684;28;20475;-71
2022/05/05 09:33:15;;;;;;;6.40;5.80;;;;;;;;;;5093452;28;20450;-72
2022/05/05 09:35:43;;;;;;;6.83;6.17;;;;;;;;;;5093133;28;20504;-71
2022/05/05 09:38:10;;;;;;;7.90;6.47;;;;;;;;;;5093117;28;20548;-72
2022/05/05 09:40:37;;;;;;;7.00;6.27;;;;;;;;;;5093155;28;20467;-72
2022/05/05 09:43:05;;;;;;;5.90;5.50;;;;;;;;;;5093329;28;20450;-72
2022/05/05 09:45:33;;;;;;;6.97;5.40;;;;;;;;;;5092954;28;20447;-72
2022/05/05 09:48:01;;;;;;;5.97;5.30;;;;;;;;;;5092955;28;20462;-72
2022/05/05 09:50:29;;;;;;;5.63;5.00;;;;;;;;;;5093057;28;20492;-72
2022/05/05 09:58:34;;;;;;;10.50;5.27;;;;;;;;;;5093182;28;20438;-72
2022/05/05 10:01:05;;;;;;;4.30;3.90;;;;;;;;;;5093511;28;20505;-72
2022/05/05 10:06:25;;;;;;;4.07;3.67;;;;;;;;;;5092921;28;20425;-72
2022/05/05 10:08:53;;;;;;;3.63;3.33;;;;;;;;;;5093111;28;20994;-72
2022/05/05 10:11:20;;;;;;;4.03;3.73;;;;;;;;;;5093051;28;20494;-72
2022/05/05 10:13:50;;;;;;;4.10;3.80;;;;;;;;;;5092808;28;20963;-71
2022/05/05 10:16:17;;;;;;;4.10;3.80;;;;;;;;;;5092718;28;20446;-71
2022/05/05 10:18:44;;;;;;;4.53;4.10;;;;;;;;;;5092983;28;20447;-71
2022/05/05 10:21:16;;;;;;;6.63;3.90;;;;;;;;;;5092818;28;20463;-72
2022/05/05 10:23:51;;;;;;;9.00;7.47;;;;;;;;;;5092284;28;20887;-72
2022/05/05 10:26:23;;;;;;;4.90;3.90;;;;;;;;;;5093011;28;20449;-71
2022/05/05 10:28:52;;;;;;;9.53;4.80;;;;;;;;;;5092453;28;20516;-72
2022/05/05 10:31:39;;;;;;;6.73;5.73;;;;;;;;;;5092622;28;20794;-72
2022/05/05 10:34:07;;;;;;;6.70;3.97;;;;;;;;;;5092668;28;20828;-72
2022/05/05 10:36:35;;;;;;;3.83;3.20;;;;;;;;;;5092725;28;20856;-72
2022/05/05 10:39:19;;;;;;;3.83;3.47;;;;;;;;;;5092738;28;21002;-73
2022/05/05 10:41:46;;;;;;;4.37;3.73;;;;;;;;;;5094319;28;20449;-72
2022/05/05 10:44:27;;;;;;;5.23;3.40;;;;;;;;;;5096304;28;20459;-72
2022/05/05 10:46:54;;;;;;;3.97;3.67;;;;;;;;;;5096099;28;20824;-71
2022/05/05 10:49:42;;;;;;;4.47;4.00;;;;;;;;;;5096174;28;20479;-71
2022/05/05 10:52:28;;;;;;;4.83;3.47;;;;;;;;;;5096271;28;20972;-72
2022/05/05 10:54:56;;;;;;;4.20;3.80;;;;;;;;;;5096103;28;20442;-72
2022/05/05 10:57:42;;;;;;;3.70;3.40;;;;;;;;;;5095959;28;20507;-72
2022/05/05 11:00:12;;;;;;;4.37;3.20;;;;;;;;;;5095927;28;20466;-72
2022/05/05 11:02:39;;;;;;;4.73;2.93;;;;;;;;;;5095836;28;20508;-72
2022/05/05 11:05:26;;;;;;;4.67;3.53;;;;;;;;;;5095666;28;20447;-72
2022/05/05 11:07:53;;;;;;;3.47;2.90;;;;;;;;;;5095859;28;20458;-72
2022/05/05 11:10:38;;;;;;;3.70;3.10;;;;;;;;;;5095553;28;20470;-72
2022/05/05 11:13:06;;;;;;;9.93;3.20;;;;;;;;;;5095621;28;20490;-72
2022/05/05 11:23:59;;;;;;;3.90;3.60;;;;;;;;;;5095041;28;20488;-71
2022/05/05 11:26:26;;;;;;;3.37;3.07;;;;;;;;;;5095678;28;20817;-72
2022/05/05 11:28:53;;;;;;;5.03;3.20;;;;;;;;;;5095377;28;20548;-72
2022/05/05 11:31:22;;;;;;;6.83;3.40;;;;;;;;;;5095330;28;20457;-72
2022/05/05 11:33:50;;;;;;;3.87;3.50;;;;;;;;;;5095122;28;20897;-72
2022/05/05 11:36:17;;;;;;;9.43;4.13;;;;;;;;;;5095380;28;20451;-71
2022/05/05 11:38:44;;;;;;;8.53;3.40;;;;;;;;;;5095404;28;20447;-72
2022/05/05 11:41:12;;;;;;;3.80;3.50;;;;;;;;;;5095074;28;20450;-72
2022/05/05 11:46:25;;;;;;;2.77;2.50;;;;;;;;;;5095015;28;20560;-71
2022/05/05 11:48:54;;;;;;;4.00;2.77;;;;;;;;;;5095220;28;20864;-71
2022/05/05 11:51:25;;;;;;;2.77;2.57;;;;;;;;;;5095172;28;20504;-71
2022/05/05 11:53:59;;;;;;;4.10;2.90;;;;;;;;;;5094501;28;20450;-71
2022/05/05 11:56:26;;;;;;;4.63;3.10;;;;;;;;;;5094892;28;20459;-71
2022/05/05 12:01:41;;;;;;;5.67;3.30;;;;;;;;;;5095036;28;20433;-71
2022/05/05 12:04:09;;;;;;;5.50;3.30;;;;;;;;;;5095010;28;20507;-71
2022/05/05 12:06:37;;;;;;;10.90;3.00;;;;;;;;;;5094997;28;20496;-72
2022/05/05 12:09:06;;;;;;;3.77;3.10;;;;;;;;;;5094530;28;20474;-72
2022/05/05 12:11:33;;;;;;;3.73;3.43;;;;;;;;;;5094543;28;20450;-73
2022/05/05 12:14:02;;;;;;;4.03;3.10;;;;;;;;;;5094501;28;20912;-72
2022/05/05 12:16:34;;;;;;;3.37;3.07;;;;;;;;;;5094801;28;20685;-75
2022/05/05 12:19:02;;;;;;;4.20;3.77;;;;;;;;;;5091324;28;21057;-74
2022/05/05 12:21:29;;;;;;;6.63;3.53;;;;;;;;;;5092506;28;20443;-73
2022/05/05 12:23:58;;;;;;;4.60;3.67;;;;;;;;;;5092924;28;20501;-74
2022/05/05 12:26:29;;;;;;;5.23;4.10;;;;;;;;;;5092891;28;20457;-73
2022/05/05 12:28:56;;;;;;;4.97;4.27;;;;;;;;;;5093057;28;20503;-71
2022/05/05 12:31:24;;;;;;;4.85;4.45;;;;;;;;;;5092327;28;20935;-74
2022/05/05 12:33:52;;;;;;;7.13;4.33;;;;;;;;;;5092406;28;20617;-72
2022/05/05 12:36:20;;;;;;;10.97;5.73;;;;;;;;;;5092486;28;20457;-71
2022/05/05 12:38:47;;;;;;;67.43;12.90;;;;;;;;;;5092788;28;20443;-71
2022/05/05 12:41:15;;;;;;;3.40;3.10;;;;;;;;;;5092472;28;20454;-71
2022/05/05 12:43:42;;;;;;;6.10;3.30;;;;;;;;;;5092139;28;20454;-72
2022/05/05 12:46:09;;;;;;;4.13;3.43;;;;;;;;;;5092853;28;20463;-71
2022/05/05 12:48:41;;;;;;;3.90;3.17;;;;;;;;;;5091990;28;20457;-71
2022/05/05 12:51:17;;;;;;;3.10;2.80;;;;;;;;;;5092662;28;20896;-72
2022/05/05 13:01:59;;;;;;;5.93;4.20;;;;;;;;;;5092135;28;20515;-72
2022/05/05 13:04:26;;;;;;;4.93;3.70;;;;;;;;;;5091573;28;20931;-72
2022/05/05 13:06:54;;;;;;;3.53;3.23;;;;;;;;;;5092249;28;20450;-72
2022/05/05 13:09:22;;;;;;;3.53;3.00;;;;;;;;;;5091887;28;20465;-71
2022/05/05 13:11:51;;;;;;;3.40;3.00;;;;;;;;;;5093669;28;20457;-71
2022/05/05 13:14:20;;;;;;;3.70;3.40;;;;;;;;;;5093209;28;20454;-72
2022/05/05 13:16:47;;;;;;;4.80;4.00;;;;;;;;;;5093661;28;20455;-72
2022/05/05 13:19:14;;;;;;;4.00;3.70;;;;;;;;;;5093349;28;20979;-72
2022/05/05 13:21:42;;;;;;;3.43;3.13;;;;;;;;;;5093123;28;20501;-71
2022/05/05 13:24:09;;;;;;;3.50;3.20;;;;;;;;;;5093191;28;20467;-74
2022/05/05 13:26:39;;;;;;;3.40;3.10;;;;;;;;;;5093673;28;20814;-74
2022/05/05 13:29:06;;;;;;;3.83;3.50;;;;;;;;;;5094258;28;20823;-75
2022/05/05 13:31:33;;;;;;;4.30;3.90;;;;;;;;;;5093612;28;20461;-74
2022/05/05 13:34:00;;;;;;;4.67;3.70;;;;;;;;;;5093445;28;20490;-74
2022/05/05 13:36:28;;;;;;;5.60;3.60;;;;;;;;;;5093502;28;20450;-72
2022/05/05 13:38:56;;;;;;;3.93;3.23;;;;;;;;;;5093384;28;20482;-72
2022/05/05 13:41:23;;;;;;;3.43;3.13;;;;;;;;;;5093540;28;20832;-72
2022/05/05 13:43:52;;;;;;;3.63;3.33;;;;;;;;;;5093486;28;20453;-73
2022/05/05 13:46:19;;;;;;;3.17;2.77;;;;;;;;;;5093437;28;20450;-72
2022/05/05 13:48:46;;;;;;;6.43;2.93;;;;;;;;;;5093096;28;20442;-72
2022/05/05 13:51:14;;;;;;;3.90;3.07;;;;;;;;;;5093407;28;20446;-72
2022/05/05 13:53:41;;;;;;;4.53;3.70;;;;;;;;;;5093431;28;20486;-72
2022/05/05 13:56:09;;;;;;;3.60;3.27;;;;;;;;;;5093408;28;20821;-72
2022/05/05 13:58:36;;;;;;;4.00;3.60;;;;;;;;;;5092889;28;20511;-72
2022/05/05 14:01:04;;;;;;;3.90;3.27;;;;;;;;;;5093298;28;20994;-72
2022/05/05 14:03:31;;;;;;;3.30;3.00;;;;;;;;;;5092923;28;20451;-72
2022/05/05 14:05:59;;;;;;;3.80;3.50;;;;;;;;;;5092947;28;20451;-72
2022/05/05 14:13:58;;;;;;;3.50;2.93;;;;;;;;;;5092894;28;20462;-72
2022/05/05 14:16:27;;;;;;;4.60;3.30;;;;;;;;;;5096016;28;20450;-72
2022/05/05 14:18:54;;;;;;;3.67;3.37;;;;;;;;;;5096725;28;20506;-72
2022/05/05 14:21:21;;;;;;;10.70;9.60;;;;;;;;;;5097079;28;20966;-72
2022/05/05 14:23:48;;;;;;;2.83;2.60;;;;;;;;;;5096747;28;20462;-72
2022/05/05 14:26:15;;;;;;;3.30;2.90;;;;;;;;;;5096941;28;20447;-72
2022/05/05 14:28:43;;;;;;;5.33;3.03;;;;;;;;;;5096455;28;20527;-71
2022/05/05 14:31:10;;;;;;;2.93;2.40;;;;;;;;;;5096569;28;20443;-72
2022/05/05 14:33:38;;;;;;;4.47;2.73;;;;;;;;;;5096680;28;20994;-72
2022/05/05 14:36:06;;;;;;;5.43;2.93;;;;;;;;;;5096810;28;20450;-73
2022/05/05 14:38:33;;;;;;;3.30;2.90;;;;;;;;;;5096292;28;20463;-74
2022/05/05 14:41:01;;;;;;;5.53;2.80;;;;;;;;;;5096568;28;20454;-74
2022/05/05 14:43:28;;;;;;;6.03;2.70;;;;;;;;;;5096403;28;20451;-74
2022/05/05 14:45:55;;;;;;;3.23;2.93;;;;;;;;;;5096434;28;20450;-74
2022/05/05 14:48:22;;;;;;;3.13;2.83;;;;;;;;;;5096496;28;20478;-75
2022/05/05 14:50:51;;;;;;;3.20;2.90;;;;;;;;;;5096426;28;20470;-75
2022/05/05 14:53:18;;;;;;;3.90;3.17;;;;;;;;;;5096000;28;20482;-74
2022/05/05 14:55:45;;;;;;;6.00;2.63;;;;;;;;;;5096013;28;20454;-74
2022/05/05 14:58:12;;;;;;;3.43;3.13;;;;;;;;;;5096348;28;20862;-74
2022/05/05 15:00:40;;;;;;;2.93;2.63;;;;;;;;;;5096005;28;20967;-74
2022/05/05 15:03:07;;;;;;;3.27;2.67;;;;;;;;;;5096003;28;20451;-74
2022/05/05 15:05:34;;;;;;;2.83;2.60;;;;;;;;;;5096206;28;20458;-74
2022/05/05 15:08:04;;;;;;;3.43;2.80;;;;;;;;;;5096117;28;20466;-74
2022/05/05 15:10:31;;;;;;;3.97;2.90;;;;;;;;;;5096158;28;20854;-74
2022/05/05 15:12:59;;;;;;;4.23;3.27;;;;;;;;;;5095934;28;20982;-74
2022/05/05 15:15:26;;;;;;;4.50;3.60;;;;;;;;;;5095673;28;20539;-74
2022/05/05 15:17:54;;;;;;;5.97;3.67;;;;;;;;;;5095887;28;20465;-74
2022/05/05 15:20:21;;;;;;;4.47;3.47;;;;;;;;;;5095841;28;20838;-74
2022/05/05 15:22:48;;;;;;;4.57;3.60;;;;;;;;;;5095783;28;20451;-74
2022/05/05 15:25:20;;;;;;;4.10;3.70;;;;;;;;;;5095881;28;20444;-74
2022/05/05 15:27:47;;;;;;;7.60;5.03;;;;;;;;;;5095226;28;20445;-74
2022/05/05 15:30:14;;;;;;;3.40;3.20;;;;;;;;;;5095424;28;20474;-74
2022/05/05 15:32:41;;;;;;;9.60;4.70;;;;;;;;;;5095622;28;20936;-74
2022/05/05 15:35:10;;;;;;;3.60;3.30;;;;;;;;;;5095673;28;20451;-73
2022/05/05 15:37:37;;;;;;;3.83;3.43;;;;;;;;;;5095436;28;20462;-74
2022/05/05 15:40:05;;;;;;;3.53;3.10;;;;;;;;;;5095508;28;20502;-74
2022/05/05 15:42:33;;;;;;;5.40;3.23;;;;;;;;;;5095508;28;20450;-74
2022/05/05 15:45:01;;;;;;;5.40;3.50;;;;;;;;;;5095436;28;20466;-74
2022/05/05 15:47:28;;;;;;;4.47;4.07;;;;;;;;;;5095355;28;20962;-73
2022/05/05 15:49:56;;;;;;;8.47;3.60;;;;;;;;;;5095252;28;20986;-74